Yigo, Guam
Current Conditions -  °F | °C
As of 5:58 PM on Wednesday 26 Nov 2014 (Local Time) from PGUA Reporting Station
Broken Clouds Broken Clouds  
Wind Chill: 27°   Ceiling: 2500
Heat Index: 31°   Visibility: 10mi
Dew Point: 24°   Wind: 17mph
Humidity: 79%   Direction: 60°ENE
Pressure: 29.83"   Gusts: NA
Location:  13.53°N, 144.89°E
Report Text: PGUA 260758Z AUTO 06015KT 10SM FEW018 BKN025 27/24 A2983 RMK AO2 SLP092 T02740235 $
Loading
Personal Weather Stations






























Interactive Weather Map New forecast layout! Learn more

10-Day Weather Forecast

Advertisements
Track Severe Weather on mobile